createdAt,value
2023-05-05T00:02:42.523Z,102429.94
2023-05-05T00:06:19.929Z,102441.36
2023-05-05T00:09:57.452Z,102449.45
2023-05-05T00:13:34.913Z,102448.84
2023-05-05T00:17:12.791Z,102445.45
2023-05-05T00:20:50.911Z,102444.61
2023-05-05T00:24:28.108Z,102444.12
2023-05-05T00:28:06.077Z,102442.94
2023-05-05T00:31:43.308Z,102446.76
2023-05-05T00:35:21.187Z,102442.04
2023-05-05T00:38:58.864Z,102445.83
2023-05-05T00:42:45.300Z,102445.09
2023-05-05T00:46:28.348Z,102445.50
2023-05-05T00:49:51.747Z,102444.94
2023-05-05T00:53:29.574Z,102447.05
2023-05-05T00:57:08.126Z,102456.55
2023-05-05T01:00:44.834Z,102453.48
2023-05-05T01:04:23.135Z,102448.27
2023-05-05T01:07:59.873Z,102447.34
2023-05-05T01:12:06.606Z,102454.83
2023-05-05T01:15:28.317Z,102456.15
2023-05-05T01:19:24.536Z,102453.75
2023-05-05T01:22:45.900Z,102457.46
2023-05-05T01:26:43.026Z,102461.16
2023-05-05T01:33:49.805Z,102462.46
2023-05-05T01:37:24.645Z,102460.21
2023-05-05T01:41:04.206Z,102462.08
2023-05-05T01:44:35.075Z,102458.94
2023-05-05T01:48:08.349Z,102456.00
2023-05-05T01:51:47.068Z,102453.38
2023-05-05T01:55:25.733Z,102456.65
2023-05-05T01:59:02.244Z,102457.30
2023-05-05T02:02:39.157Z,102462.52
2023-05-05T02:06:16.764Z,102461.63
2023-05-05T02:09:53.441Z,102461.30
2023-05-05T02:13:35.304Z,102464.95
2023-05-05T02:17:10.260Z,102460.89
2023-05-05T02:20:47.325Z,102460.65
2023-05-05T02:24:24.045Z,102464.10
2023-05-05T02:29:09.056Z,102464.69
2023-05-05T02:32:18.630Z,102465.34
2023-05-05T02:35:50.171Z,102464.92
2023-05-05T02:39:36.808Z,102464.98
2023-05-05T02:43:10.204Z,102463.27
2023-05-05T02:46:42.907Z,102465.70
2023-05-05T02:50:18.653Z,102464.13
2023-05-05T02:53:56.709Z,102468.48
2023-05-05T02:57:55.835Z,102475.23
2023-05-05T03:01:57.702Z,102474.29
2023-05-05T03:05:09.661Z,102477.30
2023-05-05T03:09:14.644Z,102477.52
2023-05-05T03:12:38.822Z,102482.95
2023-05-05T03:16:09.674Z,102480.53
2023-05-05T03:19:48.183Z,102480.85
2023-05-05T03:23:25.010Z,102490.30
2023-05-05T03:27:03.293Z,102491.14
2023-05-05T03:30:40.392Z,102494.51
2023-05-05T03:34:17.850Z,102496.02
2023-05-05T03:37:56.019Z,102502.55
2023-05-05T03:41:33.079Z,102505.67
2023-05-05T03:45:10.833Z,102507.16
2023-05-05T03:48:49.002Z,102508.03
2023-05-05T03:52:26.443Z,102514.52
2023-05-05T03:56:04.045Z,102512.77
2023-05-05T03:59:41.647Z,102513.08
2023-05-05T04:03:19.579Z,102514.81
2023-05-05T04:06:57.206Z,102520.41
2023-05-05T04:10:34.743Z,102521.65
2023-05-05T04:14:12.160Z,102524.29
2023-05-05T04:17:50.037Z,102522.64
2023-05-05T04:21:27.970Z,102527.99
2023-05-05T04:25:05.839Z,102531.17
2023-05-05T04:28:43.189Z,102535.37
2023-05-05T04:32:21.125Z,102539.70
2023-05-05T04:35:58.581Z,102541.95
2023-05-05T04:39:35.975Z,102539.35
2023-05-05T04:43:13.449Z,102546.48
2023-05-05T04:46:51.760Z,102544.36
2023-05-05T04:50:29.083Z,102547.42
2023-05-05T04:54:08.047Z,102551.06
2023-05-05T04:57:44.526Z,102554.52
2023-05-05T05:01:22.018Z,102559.32
2023-05-05T05:04:59.481Z,102563.18
2023-05-05T05:08:37.356Z,102570.50
2023-05-05T05:12:14.960Z,102573.35
2023-05-05T05:15:52.707Z,102577.04
2023-05-05T05:19:30.484Z,102579.36
2023-05-05T05:23:10.048Z,102585.86
2023-05-05T05:26:45.734Z,102587.01
2023-05-05T05:30:23.393Z,102589.49
2023-05-05T05:34:01.172Z,102598.11
2023-05-05T05:37:38.720Z,102598.77
2023-05-05T05:41:16.320Z,102599.98
2023-05-05T05:44:54.124Z,102601.95
2023-05-05T05:48:31.819Z,102604.36
2023-05-05T05:52:09.346Z,102602.63
2023-05-05T05:55:47.417Z,102602.35
2023-05-05T05:59:24.797Z,102609.23
2023-05-05T06:03:02.641Z,102613.52
2023-05-05T06:06:40.245Z,102616.59
2023-05-05T06:10:27.270Z,102623.20
2023-05-05T06:13:55.209Z,102621.59
2023-05-05T06:17:33.421Z,102621.25
2023-05-05T06:21:10.867Z,102620.39
2023-05-05T06:24:48.285Z,102624.62
2023-05-05T06:28:26.089Z,102633.40
2023-05-05T06:35:41.379Z,102647.48
2023-05-05T06:39:19.146Z,102643.39
2023-05-05T06:42:57.505Z,102650.98
2023-05-05T06:46:34.847Z,102651.63
2023-05-05T06:50:12.354Z,102654.58
2023-05-05T06:53:53.235Z,102653.71
2023-05-05T06:57:29.653Z,102651.77
2023-05-05T07:01:20.057Z,102654.39
2023-05-05T07:04:44.239Z,102654.89
2023-05-05T07:08:20.954Z,102659.69
2023-05-05T07:11:58.746Z,102667.09
2023-05-05T07:15:38.121Z,102661.96
2023-05-05T07:22:51.299Z,102666.44
2023-05-05T07:26:29.125Z,102665.77
2023-05-05T07:30:11.944Z,102668.59
2023-05-05T07:33:44.166Z,102671.27
2023-05-05T07:37:22.312Z,102672.08
2023-05-05T07:40:59.321Z,102670.72
2023-05-05T07:44:37.304Z,102672.31
2023-05-05T07:48:14.797Z,102670.99
2023-05-05T07:51:53.088Z,102668.94
2023-05-05T07:55:32.422Z,102673.90
2023-05-05T07:59:08.176Z,102675.25
2023-05-05T08:02:46.738Z,102681.73
2023-05-05T08:06:25.155Z,102692.06
2023-05-05T08:10:01.087Z,102695.30
2023-05-05T08:13:39.402Z,102696.16
2023-05-05T08:17:19.162Z,102699.74
2023-05-05T08:20:54.824Z,102698.84
2023-05-05T08:31:47.156Z,102704.41
2023-05-05T08:35:24.687Z,102710.97
2023-05-05T08:42:41.985Z,102716.06
2023-05-05T08:46:18.003Z,102716.97
2023-05-05T08:49:56.844Z,102717.92
2023-05-05T08:53:42.501Z,102716.60
2023-05-05T08:57:12.160Z,102718.66
2023-05-05T09:00:50.184Z,102726.08
2023-05-05T09:04:26.914Z,102721.23
2023-05-05T09:08:06.881Z,102725.23
2023-05-05T09:11:41.868Z,102726.80
2023-05-05T09:15:19.204Z,102729.08
2023-05-05T09:19:04.266Z,102728.17
2023-05-05T09:22:39.058Z,102735.21
2023-05-05T09:26:12.080Z,102731.73
2023-05-05T09:29:50.414Z,102732.66
2023-05-05T09:33:31.513Z,102733.48
2023-05-05T09:37:06.364Z,102726.14
2023-05-05T09:41:00.944Z,102729.14
2023-05-05T09:44:40.215Z,102730.00
2023-05-05T09:48:00.265Z,102731.25
2023-05-05T09:51:36.411Z,102737.20
2023-05-05T10:02:39.233Z,102736.48
2023-05-05T10:06:15.696Z,102731.90
2023-05-05T10:09:52.941Z,102737.48
2023-05-05T10:13:35.609Z,102740.46
2023-05-05T10:17:10.714Z,102743.73
2023-05-05T10:20:49.102Z,102737.96
2023-05-05T10:24:45.118Z,102739.02
2023-05-05T10:28:06.660Z,102738.67
2023-05-05T10:31:52.826Z,102742.56
2023-05-05T10:35:22.436Z,102740.53
2023-05-05T10:38:57.748Z,102736.73
2023-05-05T10:42:32.753Z,102736.90
2023-05-05T10:46:10.022Z,102735.66
2023-05-05T10:49:56.463Z,102727.50
2023-05-05T10:53:37.092Z,102732.58
2023-05-05T10:57:05.311Z,102732.10
2023-05-05T11:00:40.151Z,102734.12
2023-05-05T11:04:23.959Z,102731.05
2023-05-05T11:08:27.241Z,102731.16
2023-05-05T11:12:03.488Z,102727.52
2023-05-05T11:15:30.489Z,102729.77
2023-05-05T11:18:58.625Z,102725.61
2023-05-05T11:23:19.666Z,102722.33
2023-05-05T11:26:54.383Z,102721.52
2023-05-05T11:30:13.624Z,102718.20
2023-05-05T11:33:50.846Z,102718.31
2023-05-05T11:37:29.050Z,102718.38
2023-05-05T11:41:40.091Z,102719.64
2023-05-05T11:44:56.336Z,102718.34
2023-05-05T11:48:47.380Z,102716.85
2023-05-05T11:52:15.287Z,102717.45
2023-05-05T11:55:48.782Z,102724.73
2023-05-05T11:59:26.501Z,102723.84
2023-05-05T12:03:04.692Z,102721.39
2023-05-05T12:06:43.116Z,102717.60
2023-05-05T12:10:23.946Z,102716.49
2023-05-05T12:14:10.994Z,102715.50
2023-05-05T12:17:46.266Z,102713.02
2023-05-05T12:21:20.019Z,102715.20
2023-05-05T12:24:58.608Z,102713.66
2023-05-05T12:28:44.415Z,102710.11
2023-05-05T12:32:05.875Z,102711.65
2023-05-05T12:35:43.641Z,102713.77
2023-05-05T12:39:21.442Z,102712.55
2023-05-05T12:42:58.453Z,102703.22
2023-05-05T12:46:49.518Z,102704.52
2023-05-05T12:50:13.849Z,102703.61
2023-05-05T12:54:11.549Z,102699.63
2023-05-05T13:01:11.169Z,102694.88
2023-05-05T13:04:52.985Z,102694.89
2023-05-05T13:08:22.727Z,102687.20
2023-05-05T13:11:59.949Z,102684.23
2023-05-05T13:15:37.669Z,102681.36
2023-05-05T13:19:15.336Z,102671.63
2023-05-05T13:22:52.857Z,102666.66
2023-05-05T13:30:09.387Z,102658.55
2023-05-05T13:34:04.696Z,102658.88
2023-05-05T13:37:24.407Z,102656.86
2023-05-05T13:41:01.183Z,102653.97
2023-05-05T13:44:39.572Z,102646.74
2023-05-05T13:48:16.590Z,102641.77
2023-05-05T13:51:55.324Z,102634.41
2023-05-05T13:55:32.372Z,102629.73
2023-05-05T13:59:09.679Z,102625.14
2023-05-05T14:02:50.785Z,102615.38
2023-05-05T14:06:25.138Z,102614.17
2023-05-05T14:10:02.812Z,102611.52
2023-05-05T14:13:40.605Z,102618.83
2023-05-05T14:17:18.223Z,102617.32
2023-05-05T14:20:56.026Z,102614.89
2023-05-05T14:24:33.958Z,102608.33
2023-05-05T14:28:11.336Z,102610.51
2023-05-05T14:35:26.416Z,102611.54
2023-05-05T14:39:04.132Z,102618.23
2023-05-05T14:42:41.914Z,102618.92
2023-05-05T14:46:19.519Z,102624.80
2023-05-05T14:49:56.864Z,102622.55
2023-05-05T14:53:35.222Z,102622.20
2023-05-05T14:57:12.343Z,102621.29
2023-05-05T15:00:50.355Z,102614.02
2023-05-05T15:04:28.054Z,102616.59
2023-05-05T15:08:05.803Z,102614.42
2023-05-05T15:11:43.187Z,102615.16
2023-05-05T15:18:58.562Z,102621.08
2023-05-05T15:22:55.168Z,102620.55
2023-05-05T15:26:13.894Z,102615.86
2023-05-05T15:29:51.317Z,102611.37
2023-05-05T15:33:33.576Z,102607.20
2023-05-05T15:37:06.874Z,102599.84
2023-05-05T15:40:48.269Z,102593.15
2023-05-05T15:44:21.831Z,102589.44
2023-05-05T15:47:59.829Z,102585.12
2023-05-05T15:51:37.617Z,102587.27
2023-05-05T15:55:15.746Z,102585.77
2023-05-05T15:58:53.307Z,102578.20
2023-05-05T16:02:30.789Z,102578.08
2023-05-05T16:06:10.127Z,102577.92
2023-05-05T16:09:45.733Z,102577.23
2023-05-05T16:13:23.749Z,102575.91
2023-05-05T16:17:03.807Z,102579.96
2023-05-05T16:20:39.156Z,102570.73
2023-05-05T16:24:17.051Z,102574.12
2023-05-05T16:27:57.027Z,102570.73
2023-05-05T16:31:34.085Z,102576.03
2023-05-05T16:35:09.775Z,102576.00
2023-05-05T16:38:47.439Z,102580.08
2023-05-05T16:42:25.346Z,102573.13
2023-05-05T16:46:04.904Z,102568.05
2023-05-05T16:49:40.390Z,102568.02
2023-05-05T16:56:55.534Z,102561.09
2023-05-05T17:00:33.669Z,102559.16
2023-05-05T17:04:12.030Z,102560.66
2023-05-05T17:07:49.028Z,102559.51
2023-05-05T17:11:26.011Z,102557.66
2023-05-05T17:15:04.335Z,102556.16
2023-05-05T17:18:41.467Z,102557.88
2023-05-05T17:22:19.476Z,102552.00
2023-05-05T17:25:58.812Z,102549.48
2023-05-05T17:29:54.131Z,102549.16
2023-05-05T17:33:12.328Z,102541.67
2023-05-05T17:36:50.089Z,102535.89
2023-05-05T17:40:27.773Z,102538.29
2023-05-05T17:44:05.683Z,102541.17
2023-05-05T17:47:42.889Z,102540.23
2023-05-05T17:51:20.654Z,102537.09
2023-05-05T17:54:58.618Z,102533.68
2023-05-05T17:58:36.384Z,102534.78
2023-05-05T18:02:13.501Z,102535.49
2023-05-05T18:05:51.351Z,102541.29
2023-05-05T18:09:28.930Z,102547.38
2023-05-05T18:13:06.804Z,102548.28
2023-05-05T18:17:14.234Z,102554.20
2023-05-05T18:20:29.376Z,102548.85
2023-05-05T18:24:19.568Z,102543.75
2023-05-05T18:27:45.218Z,102551.49
2023-05-05T18:35:00.118Z,102550.30
2023-05-05T18:38:37.485Z,102550.11
2023-05-05T18:42:15.734Z,102548.33
2023-05-05T18:45:53.350Z,102552.42
2023-05-05T18:49:31.578Z,102554.06
2023-05-05T18:53:10.814Z,102553.59
2023-05-05T18:56:46.163Z,102556.00
2023-05-05T19:00:23.418Z,102554.80
2023-05-05T19:04:01.783Z,102549.33
2023-05-05T19:07:39.183Z,102540.33
2023-05-05T19:11:17.016Z,102544.40
2023-05-05T19:14:54.111Z,102539.41
2023-05-05T19:18:32.847Z,102534.66
2023-05-05T19:22:09.767Z,102537.48
2023-05-05T19:29:25.339Z,102536.89
2023-05-05T19:33:03.107Z,102537.52
2023-05-05T19:36:42.700Z,102536.32
2023-05-05T19:40:18.356Z,102540.84
2023-05-05T19:43:55.967Z,102541.96
2023-05-05T19:47:33.989Z,102538.98
2023-05-05T19:51:11.231Z,102539.56
2023-05-05T19:54:49.980Z,102542.21
2023-05-05T19:58:26.422Z,102545.20
2023-05-05T20:02:04.707Z,102546.85
2023-05-05T20:05:41.967Z,102547.54
2023-05-05T20:09:20.082Z,102543.93
2023-05-05T20:12:57.482Z,102542.86
2023-05-05T20:16:35.379Z,102540.21
2023-05-05T20:20:17.217Z,102537.44
2023-05-05T20:23:50.134Z,102544.56
2023-05-05T20:27:28.731Z,102544.21
2023-05-05T20:31:07.031Z,102541.63
2023-05-05T20:34:43.586Z,102539.80
2023-05-05T20:38:21.055Z,102539.30
2023-05-05T20:41:59.984Z,102533.82
2023-05-05T20:45:37.369Z,102531.98
2023-05-05T20:49:14.184Z,102529.89
2023-05-05T20:52:51.770Z,102524.05
2023-05-05T20:56:30.247Z,102521.69
2023-05-05T21:00:31.754Z,102514.19
2023-05-05T21:03:47.722Z,102509.76
2023-05-05T21:07:25.465Z,102517.34
2023-05-05T21:11:21.738Z,102509.98
2023-05-05T21:14:45.455Z,102513.21
2023-05-05T21:18:18.221Z,102506.73
2023-05-05T21:21:59.296Z,102504.00
2023-05-05T21:25:33.826Z,102493.86
2023-05-05T21:29:11.896Z,102492.35
2023-05-05T21:32:49.368Z,102492.61
2023-05-05T21:36:27.384Z,102493.20
2023-05-05T21:40:04.702Z,102492.32
2023-05-05T21:43:41.565Z,102488.42
2023-05-05T21:50:57.884Z,102493.59
2023-05-05T21:54:34.554Z,102481.76
2023-05-05T21:58:12.430Z,102478.59
2023-05-05T22:01:50.065Z,102470.16
2023-05-05T22:05:27.953Z,102468.80
2023-05-05T22:12:44.393Z,102463.90
2023-05-05T22:16:21.308Z,102463.41
2023-05-05T22:19:59.268Z,102467.85
2023-05-05T22:23:37.601Z,102472.41
2023-05-05T22:27:14.573Z,102468.11
2023-05-05T22:30:52.008Z,102472.77
2023-05-05T22:34:29.681Z,102471.11
2023-05-05T22:38:07.293Z,102471.72
2023-05-05T22:41:45.119Z,102467.34
2023-05-05T22:45:23.918Z,102466.38
2023-05-05T22:49:00.371Z,102459.14
2023-05-05T22:52:38.094Z,102457.35
2023-05-05T22:56:16.013Z,102451.73
2023-05-05T22:59:53.316Z,102451.35
2023-05-05T23:07:08.547Z,102447.80
2023-05-05T23:10:46.032Z,102447.62
2023-05-05T23:14:23.828Z,102444.54
2023-05-05T23:18:01.652Z,102435.45
2023-05-05T23:21:52.191Z,102437.02
2023-05-05T23:25:16.720Z,102440.30
2023-05-05T23:32:32.751Z,102439.84
2023-05-05T23:36:09.621Z,102438.89
2023-05-05T23:39:47.475Z,102436.71
2023-05-05T23:43:24.797Z,102433.35
2023-05-05T23:47:02.768Z,102432.29
2023-05-05T23:50:40.812Z,102432.05
2023-05-05T23:54:18.528Z,102432.48
2023-05-05T23:57:55.748Z,102432.03
